Terminal Aerodrome Forecast
Issued by NWS Buffalo, NY

Home | Current Version | Previous Version | Text Only | Print | Product List | Glossary On
Versions: 1 2 3 4 5 6 7 8 9 10 11 12 13 14 15 16 17 18 19 20 21 22 23 24 25 26 27 28 29 30
000
FTUS41 KBUF 231510 AAA
TAFBUF
TAF AMD
KBUF 231510Z 2315/2412 15006KT P6SM BKN025 OVC090
     FM231600 17014KT 6SM -RA OVC015
     FM232300 22012KT 1SM BR OVC007
     FM240100 23013KT 1/2SM FG OVC012
     FM240500 26011KT 1SM BR OVC015
     FM240700 27009KT P6SM OVC015=

USA.gov is the U.S. government's official web portal to all federal, state and local government web resources and services.